createdAt,value
2018-07-06T00:02:03.624Z,2.40
2018-07-06T00:07:18.343Z,2.80
2018-07-06T00:12:33.185Z,2.87
2018-07-06T00:17:48.102Z,4.03
2018-07-06T00:23:02.640Z,3.80
2018-07-06T00:28:17.607Z,4.13
2018-07-06T00:33:32.334Z,4.60
2018-07-06T00:38:47.321Z,4.60
2018-07-06T00:44:01.964Z,5.87
2018-07-06T00:49:16.902Z,5.90
2018-07-06T00:54:31.713Z,7.57
2018-07-06T00:59:46.823Z,6.77
2018-07-06T01:05:01.638Z,7.27
2018-07-06T01:10:17.318Z,7.17
2018-07-06T01:15:35.184Z,7.23
2018-07-06T01:20:49.817Z,7.40
2018-07-06T01:26:04.556Z,7.50
2018-07-06T01:31:19.325Z,8.37
2018-07-06T01:36:34.151Z,6.83
2018-07-06T01:41:49.229Z,7.40
2018-07-06T01:47:04.206Z,8.37
2018-07-06T01:52:18.826Z,6.53
2018-07-06T01:57:33.606Z,6.13
2018-07-06T02:02:52.301Z,6.50
2018-07-06T02:08:08.793Z,7.77
2018-07-06T02:13:23.457Z,7.77
2018-07-06T02:18:38.210Z,8.50
2018-07-06T02:23:52.993Z,7.67
2018-07-06T02:29:07.847Z,8.47
2018-07-06T02:34:23.372Z,7.73
2018-07-06T02:39:38.068Z,7.67
2018-07-06T02:44:53.024Z,6.27
2018-07-06T02:50:07.902Z,6.77
2018-07-06T02:55:22.640Z,7.23
2018-07-06T03:00:37.929Z,7.47
2018-07-06T03:05:52.727Z,7.27
2018-07-06T03:11:07.833Z,8.73
2018-07-06T03:16:22.913Z,7.73
2018-07-06T03:21:37.743Z,7.83
2018-07-06T03:26:53.244Z,8.03
2018-07-06T03:32:08.195Z,8.47
2018-07-06T03:37:22.840Z,8.40
2018-07-06T03:42:37.727Z,9.63
2018-07-06T03:47:52.563Z,9.20
2018-07-06T03:53:07.378Z,8.60
2018-07-06T03:58:22.233Z,7.10
2018-07-06T04:03:37.253Z,8.73
2018-07-06T04:08:52.067Z,8.37
2018-07-06T04:14:06.820Z,9.27
2018-07-06T04:19:21.617Z,10.03
2018-07-06T04:24:36.411Z,9.43
2018-07-06T04:29:51.217Z,10.63
2018-07-06T04:35:06.735Z,10.67
2018-07-06T04:40:21.555Z,11.27
2018-07-06T04:45:36.281Z,9.83
2018-07-06T04:50:50.990Z,8.80
2018-07-06T04:56:05.710Z,9.47
2018-07-06T05:01:20.722Z,10.70
2018-07-06T05:06:35.451Z,7.80
2018-07-06T05:11:50.177Z,8.97
2018-07-06T05:17:05.063Z,9.03
2018-07-06T05:22:19.925Z,8.27
2018-07-06T05:27:35.345Z,8.40
2018-07-06T05:32:50.082Z,7.93
2018-07-06T05:38:05.281Z,7.57
2018-07-06T05:43:20.178Z,9.00
2018-07-06T05:48:35.040Z,8.73
2018-07-06T05:53:49.814Z,9.50
2018-07-06T05:59:05.069Z,10.07
2018-07-06T06:04:20.777Z,11.50
2018-07-06T06:09:25.185Z,11.33
2018-07-06T06:14:29.187Z,10.87
2018-07-06T06:19:32.749Z,9.50
2018-07-06T06:24:36.256Z,8.13
2018-07-06T06:29:40.146Z,8.90
2018-07-06T06:34:43.868Z,9.23
2018-07-06T06:39:48.118Z,9.97
2018-07-06T06:44:51.816Z,9.13
2018-07-06T06:49:55.781Z,9.20
2018-07-06T06:54:59.797Z,10.37
2018-07-06T07:00:03.398Z,10.27
2018-07-06T07:05:07.583Z,9.83
2018-07-06T07:10:11.143Z,10.30
2018-07-06T07:15:14.632Z,9.00
2018-07-06T07:20:18.203Z,9.70
2018-07-06T07:25:21.809Z,9.97
2018-07-06T07:30:29.777Z,9.13
2018-07-06T07:35:33.357Z,8.30
2018-07-06T07:40:37.429Z,9.37
2018-07-06T07:45:41.037Z,9.10
2018-07-06T07:50:56.723Z,8.67
2018-07-06T07:56:00.474Z,8.00
2018-07-06T08:01:04.263Z,9.23
2018-07-06T08:06:07.642Z,9.07
2018-07-06T08:11:11.962Z,9.23
2018-07-06T08:16:15.512Z,8.77
2018-07-06T08:21:20.004Z,8.80
2018-07-06T08:26:23.505Z,9.37
2018-07-06T08:31:27.210Z,9.23
2018-07-06T08:37:44.229Z,10.03
2018-07-06T08:42:49.603Z,10.20
2018-07-06T08:47:53.269Z,7.87
2018-07-06T08:52:57.366Z,10.97
2018-07-06T08:58:01.723Z,7.50
2018-07-06T09:03:05.776Z,10.30
2018-07-06T09:08:09.541Z,8.97
2018-07-06T09:13:13.705Z,11.53
2018-07-06T09:18:17.393Z,10.13
2018-07-06T09:23:20.957Z,10.63
2018-07-06T09:28:25.511Z,10.10
2018-07-06T09:33:29.356Z,9.37
2018-07-06T09:38:32.866Z,7.90
2018-07-06T09:43:36.572Z,11.57
2018-07-06T09:48:40.590Z,9.07
2018-07-06T09:53:44.300Z,11.13
2018-07-06T09:58:47.854Z,8.93
2018-07-06T10:03:52.162Z,7.83
2018-07-06T10:08:56.537Z,7.97
2018-07-06T10:14:00.156Z,7.67
2018-07-06T10:19:03.690Z,6.60
2018-07-06T10:24:07.317Z,6.27
2018-07-06T10:30:26.813Z,10.50
2018-07-06T10:35:30.528Z,8.50
2018-07-06T10:40:34.137Z,6.20
2018-07-06T10:45:37.699Z,6.43
2018-07-06T10:50:41.259Z,6.93
2018-07-06T10:55:44.847Z,6.23
2018-07-06T11:00:48.333Z,4.83
2018-07-06T11:05:52.782Z,3.80
2018-07-06T11:10:56.469Z,4.00
2018-07-06T11:16:00.050Z,5.40
2018-07-06T11:21:04.412Z,4.63
2018-07-06T11:26:08.501Z,4.30
2018-07-06T11:31:12.008Z,4.70
2018-07-06T11:36:15.694Z,4.13
2018-07-06T11:41:19.212Z,3.40
2018-07-06T11:46:23.622Z,3.43
2018-07-06T11:51:27.262Z,3.37
2018-07-06T11:56:30.835Z,3.37
2018-07-06T12:01:34.386Z,3.40
2018-07-06T12:06:37.974Z,3.23
2018-07-06T12:11:41.496Z,2.60
2018-07-06T12:16:45.085Z,2.63
2018-07-06T12:21:49.323Z,3.13
2018-07-06T12:26:52.923Z,3.63
2018-07-06T12:31:56.439Z,2.90
2018-07-06T12:37:03.488Z,3.13
2018-07-06T12:42:06.996Z,2.47
2018-07-06T12:47:10.595Z,2.80
2018-07-06T12:52:14.328Z,3.20
2018-07-06T12:57:18.973Z,2.70
2018-07-06T13:02:22.592Z,3.80
2018-07-06T13:07:26.225Z,3.23
2018-07-06T13:12:29.805Z,3.73
2018-07-06T13:17:33.679Z,3.47
2018-07-06T13:22:37.427Z,3.37
2018-07-06T13:27:41.019Z,3.23
2018-07-06T13:32:44.606Z,3.03
2018-07-06T13:37:48.699Z,3.17
2018-07-06T13:42:52.201Z,3.43
2018-07-06T13:47:55.795Z,3.03
2018-07-06T13:52:59.356Z,3.67
2018-07-06T13:58:02.929Z,3.20
2018-07-06T14:03:06.577Z,3.20
2018-07-06T14:08:10.449Z,3.03
2018-07-06T14:13:14.230Z,2.77
2018-07-06T14:18:17.846Z,3.00
2018-07-06T14:23:22.202Z,2.43
2018-07-06T14:28:26.141Z,1.90
2018-07-06T14:33:29.652Z,2.60
2018-07-06T14:38:33.433Z,2.00
2018-07-06T14:43:36.932Z,2.07
2018-07-06T14:48:41.078Z,2.67
2018-07-06T14:53:44.599Z,1.77
2018-07-06T14:58:48.174Z,1.70
2018-07-06T15:03:51.772Z,1.70
2018-07-06T15:08:55.432Z,2.33
2018-07-06T15:13:58.944Z,1.93
2018-07-06T15:19:03.384Z,2.57
2018-07-06T15:24:08.006Z,2.00
2018-07-06T15:29:11.834Z,1.90
2018-07-06T15:34:15.326Z,2.53
2018-07-06T15:39:19.528Z,2.60
2018-07-06T15:44:23.040Z,1.87
2018-07-06T15:49:26.877Z,1.83
2018-07-06T15:54:30.960Z,1.83
2018-07-06T15:59:34.617Z,2.83
2018-07-06T16:04:39.595Z,2.57
2018-07-06T16:09:44.085Z,2.23
2018-07-06T16:14:47.645Z,2.67
2018-07-06T16:19:52.621Z,2.47
2018-07-06T16:24:58.318Z,3.37
2018-07-06T16:30:02.360Z,2.17
2018-07-06T16:35:06.005Z,2.47
2018-07-06T16:40:09.838Z,2.47
2018-07-06T16:45:13.498Z,2.57
2018-07-06T16:50:17.066Z,2.53
2018-07-06T16:55:21.140Z,2.40
2018-07-06T17:00:29.084Z,2.70
2018-07-06T17:05:32.704Z,1.90
2018-07-06T17:10:37.942Z,2.23
2018-07-06T17:15:41.691Z,1.70
2018-07-06T17:20:45.672Z,1.63
2018-07-06T17:25:49.162Z,1.60
2018-07-06T17:30:53.633Z,1.73
2018-07-06T17:35:57.208Z,2.10
2018-07-06T17:41:00.999Z,1.80
2018-07-06T17:46:05.282Z,1.77
2018-07-06T17:51:08.931Z,1.50
2018-07-06T17:56:12.709Z,1.67
2018-07-06T18:01:16.429Z,1.50
2018-07-06T18:06:20.061Z,1.33
2018-07-06T18:11:23.725Z,1.67
2018-07-06T18:16:27.292Z,1.77
2018-07-06T18:21:31.322Z,2.50
2018-07-06T18:26:34.849Z,1.50
2018-07-06T18:31:38.381Z,1.40
2018-07-06T18:36:41.954Z,2.13
2018-07-06T18:41:46.046Z,1.70
2018-07-06T18:46:49.939Z,3.50
2018-07-06T18:51:53.731Z,1.50
2018-07-06T18:56:57.421Z,1.67
2018-07-06T19:02:01.009Z,1.30
2018-07-06T19:07:04.567Z,1.00
2018-07-06T19:12:08.153Z,1.30
2018-07-06T19:17:12.211Z,1.50
2018-07-06T19:22:15.761Z,0.97
2018-07-06T19:27:19.467Z,1.10
2018-07-06T19:32:22.948Z,1.10
2018-07-06T19:37:27.470Z,1.20
2018-07-06T19:42:30.985Z,1.53
2018-07-06T19:47:34.501Z,1.53
2018-07-06T19:52:38.008Z,1.20
2018-07-06T19:57:41.661Z,1.20
2018-07-06T20:02:45.432Z,1.33
2018-07-06T20:07:49.149Z,1.03
2018-07-06T20:12:53.065Z,1.00
2018-07-06T20:17:56.728Z,1.27
2018-07-06T20:23:00.240Z,1.30
2018-07-06T20:28:03.905Z,1.40
2018-07-06T20:33:07.429Z,1.07
2018-07-06T20:38:11.061Z,1.00
2018-07-06T20:43:14.621Z,1.00
2018-07-06T20:48:19.104Z,1.57
2018-07-06T20:53:22.637Z,1.27
2018-07-06T20:58:26.232Z,1.27
2018-07-06T21:03:29.714Z,1.27
2018-07-06T21:08:33.282Z,1.60
2018-07-06T21:13:37.425Z,0.93
2018-07-06T21:18:41.064Z,0.90
2018-07-06T21:23:44.563Z,0.90
2018-07-06T21:28:48.451Z,0.70
2018-07-06T21:33:52.275Z,0.80
2018-07-06T21:38:56.629Z,0.87
2018-07-06T21:44:00.185Z,0.93
2018-07-06T21:49:04.045Z,1.23
2018-07-06T21:54:08.041Z,1.47
2018-07-06T21:59:11.619Z,1.60
2018-07-06T22:04:16.337Z,0.90
2018-07-06T22:09:19.962Z,0.57
2018-07-06T22:14:23.524Z,0.80
2018-07-06T22:19:27.419Z,0.80
2018-07-06T22:24:31.048Z,1.37
2018-07-06T22:29:34.620Z,1.60
2018-07-06T22:34:38.158Z,0.80
2018-07-06T22:39:41.743Z,0.80
2018-07-06T22:44:45.362Z,1.07
2018-07-06T22:49:49.061Z,0.80
2018-07-06T22:54:52.801Z,1.00
2018-07-06T22:59:56.547Z,0.70
2018-07-06T23:05:00.090Z,1.27
2018-07-06T23:10:05.088Z,0.90
2018-07-06T23:15:08.601Z,1.10
2018-07-06T23:20:12.788Z,0.87
2018-07-06T23:25:16.775Z,1.30
2018-07-06T23:30:30.441Z,2.27
2018-07-06T23:35:34.262Z,3.53
2018-07-06T23:40:37.844Z,1.40
2018-07-06T23:45:41.340Z,1.10
2018-07-06T23:50:45.041Z,0.90
2018-07-06T23:55:49.313Z,1.47
